sensor_id;sensor_type;location;lat;lon;timestamp;P1;durP1;ratioP1;P2;durP2;ratioP2
15968;SDS011;8085;53.472;9.794;2023-02-28T00:01:05;3.67;;;1.60;;
15968;SDS011;8085;53.472;9.794;2023-02-28T00:03:32;4.70;;;2.23;;
15968;SDS011;8085;53.472;9.794;2023-02-28T00:06:00;2.10;;;1.40;;
15968;SDS011;8085;53.472;9.794;2023-02-28T00:08:28;3.30;;;1.63;;
15968;SDS011;8085;53.472;9.794;2023-02-28T00:10:55;6.27;;;1.80;;
15968;SDS011;8085;53.472;9.794;2023-02-28T00:13:22;4.60;;;1.83;;
15968;SDS011;8085;53.472;9.794;2023-02-28T00:15:59;4.83;;;1.93;;
15968;SDS011;8085;53.472;9.794;2023-02-28T00:18:26;4.63;;;2.00;;
15968;SDS011;8085;53.472;9.794;2023-02-28T00:20:53;5.80;;;2.30;;
15968;SDS011;8085;53.472;9.794;2023-02-28T00:23:20;4.53;;;2.23;;
15968;SDS011;8085;53.472;9.794;2023-02-28T00:25:47;6.50;;;2.43;;
15968;SDS011;8085;53.472;9.794;2023-02-28T00:28:14;4.87;;;2.43;;
15968;SDS011;8085;53.472;9.794;2023-02-28T00:30:41;3.40;;;1.70;;
15968;SDS011;8085;53.472;9.794;2023-02-28T00:33:09;5.43;;;2.37;;
15968;SDS011;8085;53.472;9.794;2023-02-28T00:35:36;6.00;;;2.17;;
15968;SDS011;8085;53.472;9.794;2023-02-28T00:38:03;5.23;;;1.90;;
15968;SDS011;8085;53.472;9.794;2023-02-28T00:40:30;3.63;;;2.10;;
15968;SDS011;8085;53.472;9.794;2023-02-28T00:42:57;3.90;;;1.80;;
15968;SDS011;8085;53.472;9.794;2023-02-28T00:45:24;5.33;;;2.10;;
15968;SDS011;8085;53.472;9.794;2023-02-28T00:47:51;4.70;;;2.03;;
15968;SDS011;8085;53.472;9.794;2023-02-28T00:50:20;5.00;;;2.40;;
15968;SDS011;8085;53.472;9.794;2023-02-28T00:52:47;4.23;;;2.27;;
15968;SDS011;8085;53.472;9.794;2023-02-28T00:55:14;3.17;;;1.80;;
15968;SDS011;8085;53.472;9.794;2023-02-28T00:57:41;3.43;;;1.90;;
15968;SDS011;8085;53.472;9.794;2023-02-28T01:00:08;5.00;;;2.17;;
15968;SDS011;8085;53.472;9.794;2023-02-28T01:02:36;5.00;;;2.27;;
15968;SDS011;8085;53.472;9.794;2023-02-28T01:05:03;4.80;;;2.30;;
15968;SDS011;8085;53.472;9.794;2023-02-28T01:07:32;5.13;;;2.30;;
15968;SDS011;8085;53.472;9.794;2023-02-28T01:09:58;3.17;;;1.90;;
15968;SDS011;8085;53.472;9.794;2023-02-28T01:12:25;3.73;;;1.80;;
15968;SDS011;8085;53.472;9.794;2023-02-28T01:14:52;3.90;;;1.90;;
15968;SDS011;8085;53.472;9.794;2023-02-28T01:17:19;4.90;;;2.50;;
15968;SDS011;8085;53.472;9.794;2023-02-28T01:19:46;4.10;;;2.00;;
15968;SDS011;8085;53.472;9.794;2023-02-28T01:22:12;5.67;;;2.00;;
15968;SDS011;8085;53.472;9.794;2023-02-28T01:24:41;3.50;;;2.00;;
15968;SDS011;8085;53.472;9.794;2023-02-28T01:27:07;4.33;;;2.20;;
15968;SDS011;8085;53.472;9.794;2023-02-28T01:29:34;3.53;;;2.27;;
15968;SDS011;8085;53.472;9.794;2023-02-28T01:32:01;5.13;;;2.10;;
15968;SDS011;8085;53.472;9.794;2023-02-28T01:34:28;6.40;;;2.07;;
15968;SDS011;8085;53.472;9.794;2023-02-28T01:36:55;4.37;;;2.10;;
15968;SDS011;8085;53.472;9.794;2023-02-28T01:39:23;5.60;;;2.53;;
15968;SDS011;8085;53.472;9.794;2023-02-28T01:41:52;3.53;;;1.87;;
15968;SDS011;8085;53.472;9.794;2023-02-28T01:47:25;5.27;;;2.53;;
15968;SDS011;8085;53.472;9.794;2023-02-28T01:49:53;6.53;;;2.57;;
15968;SDS011;8085;53.472;9.794;2023-02-28T01:52:21;5.60;;;2.47;;
15968;SDS011;8085;53.472;9.794;2023-02-28T01:54:51;6.00;;;2.30;;
15968;SDS011;8085;53.472;9.794;2023-02-28T01:57:24;5.33;;;2.40;;
15968;SDS011;8085;53.472;9.794;2023-02-28T01:59:54;6.57;;;2.23;;
15968;SDS011;8085;53.472;9.794;2023-02-28T02:02:24;5.70;;;2.20;;
15968;SDS011;8085;53.472;9.794;2023-02-28T02:04:53;3.77;;;2.20;;
15968;SDS011;8085;53.472;9.794;2023-02-28T02:07:22;5.63;;;2.03;;
15968;SDS011;8085;53.472;9.794;2023-02-28T02:09:56;6.07;;;2.13;;
15968;SDS011;8085;53.472;9.794;2023-02-28T02:12:31;3.43;;;1.87;;
15968;SDS011;8085;53.472;9.794;2023-02-28T02:15:11;4.70;;;2.20;;
15968;SDS011;8085;53.472;9.794;2023-02-28T02:17:43;5.70;;;2.03;;
15968;SDS011;8085;53.472;9.794;2023-02-28T02:20:32;5.90;;;1.70;;
15968;SDS011;8085;53.472;9.794;2023-02-28T02:23:23;4.20;;;1.77;;
15968;SDS011;8085;53.472;9.794;2023-02-28T02:26:04;3.23;;;1.60;;
15968;SDS011;8085;53.472;9.794;2023-02-28T02:29:00;4.30;;;1.60;;
15968;SDS011;8085;53.472;9.794;2023-02-28T02:31:54;5.13;;;1.67;;
15968;SDS011;8085;53.472;9.794;2023-02-28T02:34:50;4.23;;;1.63;;
15968;SDS011;8085;53.472;9.794;2023-02-28T02:37:25;5.43;;;1.50;;
15968;SDS011;8085;53.472;9.794;2023-02-28T02:39:59;4.33;;;1.50;;
15968;SDS011;8085;53.472;9.794;2023-02-28T02:42:35;4.37;;;1.67;;
15968;SDS011;8085;53.472;9.794;2023-02-28T02:45:09;3.87;;;1.40;;
15968;SDS011;8085;53.472;9.794;2023-02-28T02:47:38;3.20;;;1.57;;
15968;SDS011;8085;53.472;9.794;2023-02-28T02:50:11;4.37;;;1.63;;
15968;SDS011;8085;53.472;9.794;2023-02-28T02:52:40;3.77;;;1.37;;
15968;SDS011;8085;53.472;9.794;2023-02-28T02:55:11;3.00;;;1.30;;
15968;SDS011;8085;53.472;9.794;2023-02-28T02:57:42;2.60;;;1.23;;
15968;SDS011;8085;53.472;9.794;2023-02-28T03:00:14;2.70;;;1.40;;
15968;SDS011;8085;53.472;9.794;2023-02-28T03:02:43;2.60;;;1.37;;
15968;SDS011;8085;53.472;9.794;2023-02-28T03:05:14;2.97;;;1.60;;
15968;SDS011;8085;53.472;9.794;2023-02-28T03:07:45;4.83;;;2.00;;
15968;SDS011;8085;53.472;9.794;2023-02-28T03:13:16;4.07;;;1.90;;
15968;SDS011;8085;53.472;9.794;2023-02-28T03:18:53;5.37;;;1.73;;
15968;SDS011;8085;53.472;9.794;2023-02-28T03:21:29;3.57;;;1.67;;
15968;SDS011;8085;53.472;9.794;2023-02-28T03:24:03;4.37;;;1.53;;
15968;SDS011;8085;53.472;9.794;2023-02-28T03:26:36;3.63;;;1.87;;
15968;SDS011;8085;53.472;9.794;2023-02-28T03:29:08;2.47;;;1.27;;
15968;SDS011;8085;53.472;9.794;2023-02-28T03:31:43;3.03;;;1.67;;
15968;SDS011;8085;53.472;9.794;2023-02-28T03:34:15;3.83;;;1.97;;
15968;SDS011;8085;53.472;9.794;2023-02-28T03:36:50;2.87;;;1.60;;
15968;SDS011;8085;53.472;9.794;2023-02-28T03:39:20;3.50;;;1.53;;
15968;SDS011;8085;53.472;9.794;2023-02-28T03:41:52;3.20;;;1.50;;
15968;SDS011;8085;53.472;9.794;2023-02-28T03:44:24;2.67;;;1.40;;
15968;SDS011;8085;53.472;9.794;2023-02-28T03:46:56;4.30;;;1.87;;
15968;SDS011;8085;53.472;9.794;2023-02-28T03:49:27;3.53;;;1.70;;
15968;SDS011;8085;53.472;9.794;2023-02-28T03:51:59;3.87;;;1.50;;
15968;SDS011;8085;53.472;9.794;2023-02-28T03:54:29;4.70;;;1.60;;
15968;SDS011;8085;53.472;9.794;2023-02-28T03:57:00;2.30;;;1.47;;
15968;SDS011;8085;53.472;9.794;2023-02-28T03:59:34;3.40;;;1.40;;
15968;SDS011;8085;53.472;9.794;2023-02-28T04:02:03;2.73;;;1.40;;
15968;SDS011;8085;53.472;9.794;2023-02-28T04:04:29;5.40;;;1.70;;
15968;SDS011;8085;53.472;9.794;2023-02-28T04:07:03;3.93;;;1.67;;
15968;SDS011;8085;53.472;9.794;2023-02-28T04:09:32;3.87;;;1.63;;
15968;SDS011;8085;53.472;9.794;2023-02-28T04:11:59;5.10;;;1.60;;
15968;SDS011;8085;53.472;9.794;2023-02-28T04:14:26;4.53;;;1.60;;
15968;SDS011;8085;53.472;9.794;2023-02-28T04:16:53;3.63;;;1.53;;
15968;SDS011;8085;53.472;9.794;2023-02-28T04:19:20;2.63;;;1.53;;
15968;SDS011;8085;53.472;9.794;2023-02-28T04:21:47;2.37;;;1.40;;
15968;SDS011;8085;53.472;9.794;2023-02-28T04:24:18;4.57;;;1.30;;
15968;SDS011;8085;53.472;9.794;2023-02-28T04:26:48;3.50;;;1.27;;
15968;SDS011;8085;53.472;9.794;2023-02-28T04:29:18;4.03;;;1.60;;
15968;SDS011;8085;53.472;9.794;2023-02-28T04:31:46;2.60;;;1.30;;
15968;SDS011;8085;53.472;9.794;2023-02-28T04:34:13;4.03;;;1.37;;
15968;SDS011;8085;53.472;9.794;2023-02-28T04:36:40;2.63;;;1.30;;
15968;SDS011;8085;53.472;9.794;2023-02-28T04:39:07;5.23;;;1.30;;
15968;SDS011;8085;53.472;9.794;2023-02-28T04:41:37;5.77;;;1.77;;
15968;SDS011;8085;53.472;9.794;2023-02-28T04:44:04;2.67;;;1.23;;
15968;SDS011;8085;53.472;9.794;2023-02-28T04:46:31;3.83;;;1.50;;
15968;SDS011;8085;53.472;9.794;2023-02-28T04:48:58;4.03;;;1.53;;
15968;SDS011;8085;53.472;9.794;2023-02-28T04:51:24;2.27;;;1.47;;
15968;SDS011;8085;53.472;9.794;2023-02-28T04:53:51;3.97;;;1.47;;
15968;SDS011;8085;53.472;9.794;2023-02-28T04:56:19;2.60;;;1.30;;
15968;SDS011;8085;53.472;9.794;2023-02-28T04:58:47;2.10;;;1.10;;
15968;SDS011;8085;53.472;9.794;2023-02-28T05:01:18;2.37;;;1.43;;
15968;SDS011;8085;53.472;9.794;2023-02-28T05:03:48;2.83;;;1.40;;
15968;SDS011;8085;53.472;9.794;2023-02-28T05:06:15;3.97;;;1.50;;
15968;SDS011;8085;53.472;9.794;2023-02-28T05:08:42;4.33;;;1.70;;
15968;SDS011;8085;53.472;9.794;2023-02-28T05:11:12;2.73;;;1.47;;
15968;SDS011;8085;53.472;9.794;2023-02-28T05:13:41;4.13;;;1.30;;
15968;SDS011;8085;53.472;9.794;2023-02-28T05:16:09;3.63;;;1.43;;
15968;SDS011;8085;53.472;9.794;2023-02-28T05:18:36;3.27;;;1.50;;
15968;SDS011;8085;53.472;9.794;2023-02-28T05:21:03;2.70;;;1.43;;
15968;SDS011;8085;53.472;9.794;2023-02-28T05:23:31;3.53;;;1.80;;
15968;SDS011;8085;53.472;9.794;2023-02-28T05:25:58;2.83;;;1.57;;
15968;SDS011;8085;53.472;9.794;2023-02-28T05:28:25;3.00;;;1.63;;
15968;SDS011;8085;53.472;9.794;2023-02-28T05:30:51;5.20;;;1.70;;
15968;SDS011;8085;53.472;9.794;2023-02-28T05:33:20;7.30;;;1.60;;
15968;SDS011;8085;53.472;9.794;2023-02-28T05:35:46;3.90;;;1.63;;
15968;SDS011;8085;53.472;9.794;2023-02-28T05:38:13;3.23;;;1.60;;
15968;SDS011;8085;53.472;9.794;2023-02-28T05:40:40;4.40;;;1.87;;
15968;SDS011;8085;53.472;9.794;2023-02-28T05:43:09;5.27;;;2.03;;
15968;SDS011;8085;53.472;9.794;2023-02-28T05:45:36;2.60;;;1.60;;
15968;SDS011;8085;53.472;9.794;2023-02-28T05:48:03;3.20;;;1.50;;
15968;SDS011;8085;53.472;9.794;2023-02-28T05:50:32;3.83;;;1.60;;
15968;SDS011;8085;53.472;9.794;2023-02-28T05:52:59;4.60;;;1.80;;
15968;SDS011;8085;53.472;9.794;2023-02-28T05:55:26;3.30;;;1.40;;
15968;SDS011;8085;53.472;9.794;2023-02-28T05:57:52;2.93;;;1.43;;
15968;SDS011;8085;53.472;9.794;2023-02-28T06:00:19;3.43;;;1.50;;
15968;SDS011;8085;53.472;9.794;2023-02-28T06:02:47;2.00;;;1.40;;
15968;SDS011;8085;53.472;9.794;2023-02-28T06:05:14;4.43;;;1.47;;
15968;SDS011;8085;53.472;9.794;2023-02-28T06:07:44;3.83;;;1.40;;
15968;SDS011;8085;53.472;9.794;2023-02-28T06:10:11;3.60;;;1.47;;
15968;SDS011;8085;53.472;9.794;2023-02-28T06:12:38;3.87;;;1.70;;
15968;SDS011;8085;53.472;9.794;2023-02-28T06:15:07;4.37;;;2.00;;
15968;SDS011;8085;53.472;9.794;2023-02-28T06:17:37;2.30;;;1.53;;
15968;SDS011;8085;53.472;9.794;2023-02-28T06:20:05;2.93;;;1.53;;
15968;SDS011;8085;53.472;9.794;2023-02-28T06:22:33;3.63;;;1.60;;
15968;SDS011;8085;53.472;9.794;2023-02-28T06:25:02;6.57;;;1.50;;
15968;SDS011;8085;53.472;9.794;2023-02-28T06:27:30;2.43;;;1.60;;
15968;SDS011;8085;53.472;9.794;2023-02-28T06:29:57;4.13;;;1.83;;
15968;SDS011;8085;53.472;9.794;2023-02-28T06:32:24;3.77;;;1.83;;
15968;SDS011;8085;53.472;9.794;2023-02-28T06:34:50;3.57;;;1.80;;
15968;SDS011;8085;53.472;9.794;2023-02-28T06:37:18;3.77;;;1.73;;
15968;SDS011;8085;53.472;9.794;2023-02-28T06:39:45;4.77;;;1.80;;
15968;SDS011;8085;53.472;9.794;2023-02-28T06:42:13;2.23;;;1.67;;
15968;SDS011;8085;53.472;9.794;2023-02-28T06:44:40;4.73;;;1.97;;
15968;SDS011;8085;53.472;9.794;2023-02-28T06:47:08;2.60;;;1.43;;
15968;SDS011;8085;53.472;9.794;2023-02-28T06:49:35;4.00;;;1.60;;
15968;SDS011;8085;53.472;9.794;2023-02-28T06:52:03;3.20;;;1.60;;
15968;SDS011;8085;53.472;9.794;2023-02-28T06:54:30;3.47;;;1.87;;
15968;SDS011;8085;53.472;9.794;2023-02-28T06:56:57;4.50;;;1.33;;
15968;SDS011;8085;53.472;9.794;2023-02-28T06:59:25;2.70;;;1.60;;
15968;SDS011;8085;53.472;9.794;2023-02-28T07:01:52;3.90;;;1.60;;
15968;SDS011;8085;53.472;9.794;2023-02-28T07:04:20;2.40;;;1.70;;
15968;SDS011;8085;53.472;9.794;2023-02-28T07:06:47;4.60;;;2.17;;
15968;SDS011;8085;53.472;9.794;2023-02-28T07:09:14;4.13;;;2.20;;
15968;SDS011;8085;53.472;9.794;2023-02-28T07:11:41;4.40;;;2.20;;
15968;SDS011;8085;53.472;9.794;2023-02-28T07:14:08;4.07;;;2.13;;
15968;SDS011;8085;53.472;9.794;2023-02-28T07:16:37;5.00;;;2.47;;
15968;SDS011;8085;53.472;9.794;2023-02-28T07:19:03;3.67;;;2.10;;
15968;SDS011;8085;53.472;9.794;2023-02-28T07:21:30;4.30;;;2.10;;
15968;SDS011;8085;53.472;9.794;2023-02-28T07:23:57;3.67;;;2.27;;
15968;SDS011;8085;53.472;9.794;2023-02-28T07:26:24;4.90;;;2.00;;
15968;SDS011;8085;53.472;9.794;2023-02-28T07:28:51;3.97;;;2.20;;
15968;SDS011;8085;53.472;9.794;2023-02-28T07:31:18;3.53;;;2.00;;
15968;SDS011;8085;53.472;9.794;2023-02-28T07:33:46;2.90;;;1.60;;
15968;SDS011;8085;53.472;9.794;2023-02-28T07:36:14;3.60;;;2.10;;
15968;SDS011;8085;53.472;9.794;2023-02-28T07:38:43;4.73;;;2.00;;
15968;SDS011;8085;53.472;9.794;2023-02-28T07:41:13;5.07;;;2.53;;
15968;SDS011;8085;53.472;9.794;2023-02-28T07:43:40;3.80;;;2.50;;
15968;SDS011;8085;53.472;9.794;2023-02-28T07:46:08;4.30;;;2.53;;
15968;SDS011;8085;53.472;9.794;2023-02-28T07:48:36;5.80;;;2.23;;
15968;SDS011;8085;53.472;9.794;2023-02-28T07:51:05;4.83;;;2.50;;
15968;SDS011;8085;53.472;9.794;2023-02-28T07:53:32;4.90;;;1.93;;
15968;SDS011;8085;53.472;9.794;2023-02-28T07:55:59;3.70;;;1.90;;
15968;SDS011;8085;53.472;9.794;2023-02-28T07:58:27;2.73;;;1.87;;
15968;SDS011;8085;53.472;9.794;2023-02-28T08:00:55;7.20;;;3.23;;
15968;SDS011;8085;53.472;9.794;2023-02-28T08:03:22;6.00;;;2.20;;
15968;SDS011;8085;53.472;9.794;2023-02-28T08:05:50;3.17;;;2.07;;
15968;SDS011;8085;53.472;9.794;2023-02-28T08:08:19;5.90;;;2.10;;
15968;SDS011;8085;53.472;9.794;2023-02-28T08:10:46;5.03;;;2.07;;
15968;SDS011;8085;53.472;9.794;2023-02-28T08:13:13;3.70;;;2.23;;
15968;SDS011;8085;53.472;9.794;2023-02-28T08:15:40;2.67;;;1.70;;
15968;SDS011;8085;53.472;9.794;2023-02-28T08:18:07;5.30;;;1.90;;
15968;SDS011;8085;53.472;9.794;2023-02-28T08:20:34;2.17;;;1.50;;
15968;SDS011;8085;53.472;9.794;2023-02-28T08:23:01;2.80;;;1.60;;
15968;SDS011;8085;53.472;9.794;2023-02-28T08:25:29;5.23;;;1.90;;
15968;SDS011;8085;53.472;9.794;2023-02-28T08:27:56;3.27;;;1.90;;
15968;SDS011;8085;53.472;9.794;2023-02-28T08:30:23;3.33;;;1.80;;
15968;SDS011;8085;53.472;9.794;2023-02-28T08:32:50;4.10;;;1.97;;
15968;SDS011;8085;53.472;9.794;2023-02-28T08:35:17;5.37;;;1.63;;
15968;SDS011;8085;53.472;9.794;2023-02-28T08:37:43;3.70;;;1.50;;
15968;SDS011;8085;53.472;9.794;2023-02-28T08:40:10;6.47;;;2.00;;
15968;SDS011;8085;53.472;9.794;2023-02-28T08:42:44;5.23;;;1.87;;
15968;SDS011;8085;53.472;9.794;2023-02-28T08:45:11;2.77;;;1.47;;
15968;SDS011;8085;53.472;9.794;2023-02-28T08:47:39;2.73;;;1.63;;
15968;SDS011;8085;53.472;9.794;2023-02-28T08:50:06;3.43;;;1.57;;
15968;SDS011;8085;53.472;9.794;2023-02-28T08:52:34;5.43;;;1.60;;
15968;SDS011;8085;53.472;9.794;2023-02-28T08:55:00;4.47;;;1.67;;
15968;SDS011;8085;53.472;9.794;2023-02-28T08:57:27;3.57;;;1.77;;
15968;SDS011;8085;53.472;9.794;2023-02-28T08:59:55;5.03;;;2.97;;
15968;SDS011;8085;53.472;9.794;2023-02-28T09:02:22;3.93;;;1.57;;
15968;SDS011;8085;53.472;9.794;2023-02-28T09:04:49;2.83;;;1.20;;
15968;SDS011;8085;53.472;9.794;2023-02-28T09:07:16;3.00;;;1.37;;
15968;SDS011;8085;53.472;9.794;2023-02-28T09:09:43;3.10;;;1.10;;
15968;SDS011;8085;53.472;9.794;2023-02-28T09:12:19;2.60;;;1.57;;
15968;SDS011;8085;53.472;9.794;2023-02-28T09:14:46;4.00;;;1.80;;
15968;SDS011;8085;53.472;9.794;2023-02-28T09:17:14;3.63;;;1.27;;
15968;SDS011;8085;53.472;9.794;2023-02-28T09:19:41;2.90;;;1.10;;
15968;SDS011;8085;53.472;9.794;2023-02-28T09:22:08;2.23;;;1.37;;
15968;SDS011;8085;53.472;9.794;2023-02-28T09:24:35;2.80;;;1.17;;
15968;SDS011;8085;53.472;9.794;2023-02-28T09:27:03;1.50;;;0.83;;
15968;SDS011;8085;53.472;9.794;2023-02-28T09:29:30;2.43;;;1.00;;
15968;SDS011;8085;53.472;9.794;2023-02-28T09:31:57;2.43;;;0.80;;
15968;SDS011;8085;53.472;9.794;2023-02-28T09:34:26;1.63;;;0.70;;
15968;SDS011;8085;53.472;9.794;2023-02-28T09:36:53;1.47;;;1.00;;
15968;SDS011;8085;53.472;9.794;2023-02-28T09:39:20;3.30;;;0.90;;
15968;SDS011;8085;53.472;9.794;2023-02-28T09:41:47;1.03;;;0.57;;
15968;SDS011;8085;53.472;9.794;2023-02-28T09:44:18;1.73;;;0.80;;
15968;SDS011;8085;53.472;9.794;2023-02-28T09:46:53;2.10;;;0.80;;
15968;SDS011;8085;53.472;9.794;2023-02-28T09:49:27;3.17;;;0.70;;
15968;SDS011;8085;53.472;9.794;2023-02-28T09:52:00;1.40;;;0.80;;
15968;SDS011;8085;53.472;9.794;2023-02-28T09:54:31;1.77;;;0.90;;
15968;SDS011;8085;53.472;9.794;2023-02-28T09:56:59;2.77;;;0.87;;
15968;SDS011;8085;53.472;9.794;2023-02-28T09:59:35;1.77;;;0.80;;
15968;SDS011;8085;53.472;9.794;2023-02-28T10:02:17;0.90;;;0.53;;
15968;SDS011;8085;53.472;9.794;2023-02-28T10:05:08;0.70;;;0.50;;
15968;SDS011;8085;53.472;9.794;2023-02-28T10:07:43;2.77;;;0.70;;
15968;SDS011;8085;53.472;9.794;2023-02-28T10:10:21;2.03;;;0.80;;
15968;SDS011;8085;53.472;9.794;2023-02-28T10:12:51;1.13;;;0.60;;
15968;SDS011;8085;53.472;9.794;2023-02-28T10:15:21;2.97;;;0.80;;
15968;SDS011;8085;53.472;9.794;2023-02-28T10:17:51;1.73;;;0.70;;
15968;SDS011;8085;53.472;9.794;2023-02-28T10:20:25;1.90;;;0.73;;
15968;SDS011;8085;53.472;9.794;2023-02-28T10:22:57;1.60;;;0.80;;
15968;SDS011;8085;53.472;9.794;2023-02-28T10:25:32;2.70;;;0.83;;
15968;SDS011;8085;53.472;9.794;2023-02-28T10:28:01;3.20;;;1.03;;
15968;SDS011;8085;53.472;9.794;2023-02-28T10:30:36;1.80;;;0.90;;
15968;SDS011;8085;53.472;9.794;2023-02-28T10:33:05;1.20;;;0.73;;
15968;SDS011;8085;53.472;9.794;2023-02-28T10:35:33;1.10;;;0.80;;
15968;SDS011;8085;53.472;9.794;2023-02-28T10:38:00;1.30;;;0.77;;
15968;SDS011;8085;53.472;9.794;2023-02-28T10:40:37;1.17;;;0.80;;
15968;SDS011;8085;53.472;9.794;2023-02-28T10:43:05;2.40;;;1.00;;
15968;SDS011;8085;53.472;9.794;2023-02-28T10:45:52;3.60;;;0.83;;
15968;SDS011;8085;53.472;9.794;2023-02-28T10:48:26;4.93;;;1.37;;
15968;SDS011;8085;53.472;9.794;2023-02-28T10:50:57;2.90;;;1.00;;
15968;SDS011;8085;53.472;9.794;2023-02-28T10:53:30;3.43;;;0.73;;
15968;SDS011;8085;53.472;9.794;2023-02-28T10:56:00;1.30;;;0.90;;
15968;SDS011;8085;53.472;9.794;2023-02-28T10:58:29;1.70;;;0.90;;
15968;SDS011;8085;53.472;9.794;2023-02-28T11:00:58;2.00;;;0.80;;
15968;SDS011;8085;53.472;9.794;2023-02-28T11:03:29;1.43;;;0.80;;
15968;SDS011;8085;53.472;9.794;2023-02-28T11:06:04;2.30;;;0.80;;
15968;SDS011;8085;53.472;9.794;2023-02-28T11:08:33;1.70;;;1.00;;
15968;SDS011;8085;53.472;9.794;2023-02-28T11:11:02;4.83;;;0.97;;
15968;SDS011;8085;53.472;9.794;2023-02-28T11:13:31;2.93;;;0.90;;
15968;SDS011;8085;53.472;9.794;2023-02-28T11:16:00;4.37;;;0.97;;
15968;SDS011;8085;53.472;9.794;2023-02-28T11:18:30;2.13;;;0.90;;
15968;SDS011;8085;53.472;9.794;2023-02-28T11:21:04;1.47;;;0.80;;
15968;SDS011;8085;53.472;9.794;2023-02-28T11:23:32;1.97;;;1.00;;
15968;SDS011;8085;53.472;9.794;2023-02-28T11:26:02;4.10;;;0.90;;
15968;SDS011;8085;53.472;9.794;2023-02-28T11:28:35;3.13;;;1.20;;
15968;SDS011;8085;53.472;9.794;2023-02-28T11:31:05;1.10;;;0.60;;
15968;SDS011;8085;53.472;9.794;2023-02-28T11:33:42;1.93;;;0.90;;
15968;SDS011;8085;53.472;9.794;2023-02-28T11:36:12;1.67;;;0.80;;
15968;SDS011;8085;53.472;9.794;2023-02-28T11:38:41;1.13;;;0.80;;
15968;SDS011;8085;53.472;9.794;2023-02-28T11:44:10;1.37;;;0.70;;
15968;SDS011;8085;53.472;9.794;2023-02-28T11:46:49;3.50;;;0.93;;
15968;SDS011;8085;53.472;9.794;2023-02-28T11:49:25;1.07;;;0.80;;
15968;SDS011;8085;53.472;9.794;2023-02-28T11:52:02;3.87;;;1.10;;
15968;SDS011;8085;53.472;9.794;2023-02-28T11:54:37;1.93;;;0.80;;
15968;SDS011;8085;53.472;9.794;2023-02-28T11:57:28;1.70;;;1.10;;
15968;SDS011;8085;53.472;9.794;2023-02-28T12:00:29;2.57;;;1.03;;
15968;SDS011;8085;53.472;9.794;2023-02-28T12:03:10;2.00;;;1.03;;
15968;SDS011;8085;53.472;9.794;2023-02-28T12:05:43;3.40;;;1.20;;
15968;SDS011;8085;53.472;9.794;2023-02-28T12:08:22;2.73;;;0.60;;
15968;SDS011;8085;53.472;9.794;2023-02-28T12:11:03;1.83;;;0.90;;
15968;SDS011;8085;53.472;9.794;2023-02-28T12:13:38;1.60;;;1.00;;
15968;SDS011;8085;53.472;9.794;2023-02-28T12:16:17;2.47;;;0.97;;
15968;SDS011;8085;53.472;9.794;2023-02-28T12:19:06;2.27;;;1.10;;
15968;SDS011;8085;53.472;9.794;2023-02-28T12:21:47;2.33;;;1.07;;
15968;SDS011;8085;53.472;9.794;2023-02-28T12:24:42;5.40;;;0.93;;
15968;SDS011;8085;53.472;9.794;2023-02-28T12:27:19;1.87;;;1.00;;
15968;SDS011;8085;53.472;9.794;2023-02-28T12:29:49;2.53;;;1.17;;
15968;SDS011;8085;53.472;9.794;2023-02-28T12:32:21;1.60;;;1.07;;
15968;SDS011;8085;53.472;9.794;2023-02-28T12:34:54;2.00;;;1.10;;
15968;SDS011;8085;53.472;9.794;2023-02-28T12:37:25;2.30;;;1.10;;
15968;SDS011;8085;53.472;9.794;2023-02-28T12:40:01;4.07;;;1.10;;
15968;SDS011;8085;53.472;9.794;2023-02-28T12:42:31;2.00;;;1.40;;
15968;SDS011;8085;53.472;9.794;2023-02-28T12:45:02;3.47;;;1.50;;
15968;SDS011;8085;53.472;9.794;2023-02-28T12:47:34;3.57;;;1.40;;
15968;SDS011;8085;53.472;9.794;2023-02-28T12:50:02;5.90;;;1.80;;
15968;SDS011;8085;53.472;9.794;2023-02-28T12:52:33;2.60;;;1.63;;
15968;SDS011;8085;53.472;9.794;2023-02-28T12:55:08;1.80;;;1.37;;
15968;SDS011;8085;53.472;9.794;2023-02-28T12:57:42;4.90;;;1.43;;
15968;SDS011;8085;53.472;9.794;2023-02-28T13:00:16;3.27;;;1.60;;
15968;SDS011;8085;53.472;9.794;2023-02-28T13:02:58;3.37;;;1.43;;
15968;SDS011;8085;53.472;9.794;2023-02-28T13:05:55;4.57;;;1.57;;
15968;SDS011;8085;53.472;9.794;2023-02-28T13:11:28;4.47;;;1.43;;
15968;SDS011;8085;53.472;9.794;2023-02-28T13:13:57;3.57;;;1.33;;
15968;SDS011;8085;53.472;9.794;2023-02-28T13:16:26;2.50;;;1.50;;
15968;SDS011;8085;53.472;9.794;2023-02-28T13:18:53;3.50;;;1.40;;
15968;SDS011;8085;53.472;9.794;2023-02-28T13:21:41;3.43;;;1.47;;
15968;SDS011;8085;53.472;9.794;2023-02-28T13:24:10;3.00;;;1.30;;
15968;SDS011;8085;53.472;9.794;2023-02-28T13:33:19;3.97;;;1.60;;
15968;SDS011;8085;53.472;9.794;2023-02-28T13:35:50;3.57;;;1.30;;
15968;SDS011;8085;53.472;9.794;2023-02-28T13:38:35;3.53;;;1.20;;
15968;SDS011;8085;53.472;9.794;2023-02-28T13:44:22;2.57;;;1.17;;
15968;SDS011;8085;53.472;9.794;2023-02-28T13:49:53;3.47;;;1.00;;
15968;SDS011;8085;53.472;9.794;2023-02-28T13:52:41;2.00;;;0.90;;
15968;SDS011;8085;53.472;9.794;2023-02-28T13:55:27;1.97;;;0.90;;
15968;SDS011;8085;53.472;9.794;2023-02-28T13:58:00;1.60;;;1.07;;
15968;SDS011;8085;53.472;9.794;2023-02-28T14:00:43;1.50;;;1.00;;
15968;SDS011;8085;53.472;9.794;2023-02-28T14:03:30;3.33;;;1.03;;
15968;SDS011;8085;53.472;9.794;2023-02-28T14:06:16;3.97;;;0.87;;
15968;SDS011;8085;53.472;9.794;2023-02-28T14:08:54;3.07;;;0.80;;
15968;SDS011;8085;53.472;9.794;2023-02-28T14:11:28;3.37;;;0.90;;
15968;SDS011;8085;53.472;9.794;2023-02-28T14:13:57;1.70;;;0.80;;
15968;SDS011;8085;53.472;9.794;2023-02-28T14:16:26;1.80;;;1.10;;
15968;SDS011;8085;53.472;9.794;2023-02-28T14:19:01;2.70;;;1.20;;
15968;SDS011;8085;53.472;9.794;2023-02-28T14:21:35;8.67;;;1.20;;
15968;SDS011;8085;53.472;9.794;2023-02-28T14:24:29;3.67;;;1.10;;
15968;SDS011;8085;53.472;9.794;2023-02-28T14:27:22;3.43;;;0.93;;
15968;SDS011;8085;53.472;9.794;2023-02-28T14:32:59;1.73;;;0.97;;
15968;SDS011;8085;53.472;9.794;2023-02-28T14:35:45;1.33;;;0.90;;
15968;SDS011;8085;53.472;9.794;2023-02-28T14:38:27;1.70;;;1.10;;
15968;SDS011;8085;53.472;9.794;2023-02-28T14:40:58;1.93;;;1.13;;
15968;SDS011;8085;53.472;9.794;2023-02-28T14:43:29;5.17;;;1.17;;
15968;SDS011;8085;53.472;9.794;2023-02-28T14:45:56;2.63;;;1.40;;
15968;SDS011;8085;53.472;9.794;2023-02-28T14:48:26;2.70;;;1.00;;
15968;SDS011;8085;53.472;9.794;2023-02-28T14:50:55;2.93;;;1.30;;
15968;SDS011;8085;53.472;9.794;2023-02-28T14:53:24;2.03;;;1.10;;
15968;SDS011;8085;53.472;9.794;2023-02-28T14:55:54;3.47;;;1.20;;
15968;SDS011;8085;53.472;9.794;2023-02-28T14:58:22;2.83;;;1.10;;
15968;SDS011;8085;53.472;9.794;2023-02-28T15:00:51;1.50;;;1.20;;
15968;SDS011;8085;53.472;9.794;2023-02-28T15:03:20;2.97;;;1.40;;
15968;SDS011;8085;53.472;9.794;2023-02-28T15:05:54;5.00;;;1.40;;
15968;SDS011;8085;53.472;9.794;2023-02-28T15:08:22;4.27;;;1.33;;
15968;SDS011;8085;53.472;9.794;2023-02-28T15:10:51;5.20;;;1.60;;
15968;SDS011;8085;53.472;9.794;2023-02-28T15:13:21;1.77;;;1.10;;
15968;SDS011;8085;53.472;9.794;2023-02-28T15:15:51;3.23;;;1.30;;
15968;SDS011;8085;53.472;9.794;2023-02-28T15:18:23;2.43;;;1.50;;
15968;SDS011;8085;53.472;9.794;2023-02-28T15:20:59;3.00;;;1.60;;
15968;SDS011;8085;53.472;9.794;2023-02-28T15:23:30;2.30;;;1.30;;
15968;SDS011;8085;53.472;9.794;2023-02-28T15:26:00;4.53;;;1.67;;
15968;SDS011;8085;53.472;9.794;2023-02-28T15:28:27;4.93;;;1.60;;
15968;SDS011;8085;53.472;9.794;2023-02-28T15:30:55;3.43;;;1.17;;
15968;SDS011;8085;53.472;9.794;2023-02-28T15:33:25;4.07;;;1.67;;
15968;SDS011;8085;53.472;9.794;2023-02-28T15:36:04;4.93;;;1.40;;
15968;SDS011;8085;53.472;9.794;2023-02-28T15:38:33;2.83;;;1.70;;
15968;SDS011;8085;53.472;9.794;2023-02-28T15:41:01;3.00;;;1.30;;
15968;SDS011;8085;53.472;9.794;2023-02-28T15:43:33;6.10;;;1.50;;
15968;SDS011;8085;53.472;9.794;2023-02-28T15:46:02;3.20;;;1.70;;
15968;SDS011;8085;53.472;9.794;2023-02-28T15:48:31;3.27;;;1.47;;
15968;SDS011;8085;53.472;9.794;2023-02-28T15:51:02;4.10;;;1.93;;
15968;SDS011;8085;53.472;9.794;2023-02-28T15:53:32;2.43;;;1.20;;